createdAt,value
2023-05-06T13:12:08.014Z,60.20
2023-05-06T13:14:39.930Z,56.40
2023-05-06T13:17:07.588Z,54.40
2023-05-06T13:19:36.644Z,52.90
2023-05-06T13:22:05.525Z,51.80
2023-05-06T13:24:34.721Z,51.40
2023-05-06T13:27:03.614Z,50.00
2023-05-06T13:29:32.572Z,49.70
2023-05-06T13:32:01.708Z,49.40
2023-05-06T13:34:30.657Z,49.10
2023-05-06T13:36:59.588Z,49.20
2023-05-06T13:39:28.680Z,49.30
2023-05-06T13:41:57.660Z,49.20
2023-05-06T13:44:26.563Z,49.20
2023-05-06T13:46:55.724Z,49.20
2023-05-06T13:49:24.634Z,49.10
2023-05-06T13:51:53.546Z,49.10
2023-05-06T13:54:22.660Z,48.80
2023-05-06T13:56:51.654Z,49.10
2023-05-06T13:59:20.725Z,49.20
2023-05-06T14:01:50.102Z,50.20
2023-05-06T14:04:19.206Z,50.40
2023-05-06T14:06:48.008Z,50.40
2023-05-06T14:09:16.892Z,50.90
2023-05-06T14:11:46.000Z,51.10
2023-05-06T14:14:15.188Z,50.90
2023-05-06T14:16:44.300Z,50.50
2023-05-06T14:19:13.589Z,50.20
2023-05-06T14:21:42.888Z,49.70
2023-05-06T14:24:12.510Z,49.90
2023-05-06T14:26:41.750Z,50.40
2023-05-06T14:29:12.015Z,50.50
2023-05-06T14:31:40.926Z,50.90
2023-05-06T14:34:09.792Z,51.00
2023-05-06T14:36:38.694Z,51.30
2023-05-06T14:39:07.685Z,51.30
2023-05-06T14:41:36.683Z,51.10
2023-05-06T14:44:05.762Z,51.00
2023-05-06T14:46:34.975Z,51.40
2023-05-06T14:49:04.266Z,51.80
2023-05-06T14:51:33.673Z,52.10
2023-05-06T14:54:03.078Z,52.50
2023-05-06T14:56:31.966Z,52.20
2023-05-06T14:59:03.125Z,52.30
2023-05-06T15:01:31.109Z,52.10
2023-05-06T15:04:00.282Z,51.90
2023-05-06T15:06:29.680Z,51.80
2023-05-06T15:08:58.435Z,51.70
2023-05-06T15:11:27.450Z,51.50
2023-05-06T15:13:56.361Z,53.30
2023-05-06T15:16:25.576Z,54.40
2023-05-06T15:18:54.748Z,55.20
2023-05-06T15:21:23.744Z,55.60
2023-05-06T15:23:53.242Z,55.60
2023-05-06T15:26:25.879Z,55.80
2023-05-06T15:28:55.132Z,56.10
2023-05-06T15:31:24.968Z,56.00
2023-05-06T15:33:54.140Z,55.90
2023-05-06T15:36:23.030Z,56.00
2023-05-06T15:38:51.913Z,55.90
2023-05-06T15:41:20.900Z,55.90
2023-05-06T15:43:50.725Z,56.00
2023-05-06T15:46:19.945Z,56.10
2023-05-06T15:48:54.175Z,55.90
2023-05-06T15:51:19.128Z,55.70
2023-05-06T15:53:48.241Z,55.70
2023-05-06T15:56:19.054Z,57.00
2023-05-06T15:58:48.052Z,56.70
2023-05-06T16:01:20.807Z,55.70
2023-05-06T16:03:47.299Z,55.50
2023-05-06T16:06:16.372Z,55.80
2023-05-06T16:08:45.358Z,55.80
2023-05-06T16:11:14.254Z,55.90
2023-05-06T16:13:43.455Z,56.30
2023-05-06T16:16:12.486Z,56.10
2023-05-06T16:18:42.977Z,56.10
2023-05-06T16:21:12.070Z,56.40
2023-05-06T16:23:40.953Z,56.40
2023-05-06T16:26:09.744Z,56.30
2023-05-06T16:28:40.149Z,56.50
2023-05-06T16:31:09.411Z,56.60
2023-05-06T16:33:38.369Z,56.80
2023-05-06T16:36:07.728Z,56.60
2023-05-06T16:38:36.762Z,56.70
2023-05-06T16:41:05.659Z,56.30
2023-05-06T16:43:34.792Z,55.90
2023-05-06T16:46:03.964Z,55.80
2023-05-06T16:48:33.082Z,56.10
2023-05-06T16:51:02.452Z,56.20
2023-05-06T16:53:32.674Z,56.90
2023-05-06T16:56:01.566Z,57.20
2023-05-06T16:58:30.428Z,57.10
2023-05-06T17:00:59.663Z,57.10
2023-05-06T17:03:28.556Z,57.10
2023-05-06T17:05:57.648Z,57.40
2023-05-06T17:08:26.997Z,57.20
2023-05-06T17:10:56.234Z,57.10
2023-05-06T17:13:26.172Z,57.00
2023-05-06T17:15:55.112Z,56.90
2023-05-06T17:18:24.249Z,56.60
2023-05-06T17:20:56.583Z,56.70
2023-05-06T17:23:23.587Z,57.20
2023-05-06T17:25:52.550Z,57.30
2023-05-06T17:28:21.542Z,57.50
2023-05-06T17:30:50.458Z,57.20
2023-05-06T17:33:19.848Z,57.50
2023-05-06T17:35:48.833Z,57.30
2023-05-06T17:38:17.716Z,57.30
2023-05-06T17:40:46.610Z,57.30
2023-05-06T17:43:15.612Z,57.80
2023-05-06T17:45:44.599Z,58.50
2023-05-06T17:48:14.977Z,58.20
2023-05-06T17:50:43.918Z,58.70
2023-05-06T17:53:13.117Z,58.70
2023-05-06T17:55:42.001Z,59.00
2023-05-06T17:58:11.206Z,58.70
2023-05-06T18:00:40.506Z,58.40
2023-05-06T18:03:09.542Z,59.10
2023-05-06T18:05:38.793Z,59.40
2023-05-06T18:08:07.901Z,59.60
2023-05-06T18:10:36.791Z,59.80
2023-05-06T18:13:06.026Z,59.60
2023-05-06T18:15:35.188Z,59.10
2023-05-06T18:18:04.124Z,58.80
2023-05-06T18:20:33.063Z,58.60
2023-05-06T18:23:02.199Z,59.40
2023-05-06T18:25:31.156Z,59.30
2023-05-06T18:28:00.150Z,59.10
2023-05-06T18:30:29.672Z,58.90
2023-05-06T18:33:02.338Z,58.60
2023-05-06T18:35:32.037Z,58.70
2023-05-06T18:38:01.870Z,58.80
2023-05-06T18:40:31.567Z,58.50
2023-05-06T18:43:01.071Z,58.80
2023-05-06T18:45:30.603Z,58.90
2023-05-06T18:48:00.242Z,59.10
2023-05-06T18:50:29.887Z,58.90
2023-05-06T18:52:59.512Z,58.90
2023-05-06T18:55:30.240Z,58.90
2023-05-06T18:57:59.636Z,58.80
2023-05-06T19:00:32.327Z,59.10
2023-05-06T19:03:01.533Z,59.00
2023-05-06T19:05:31.122Z,59.00
2023-05-06T19:08:03.250Z,59.10
2023-05-06T19:10:34.692Z,59.10
2023-05-06T19:13:03.645Z,59.40
2023-05-06T19:15:33.242Z,59.70
2023-05-06T19:18:02.961Z,59.60
2023-05-06T19:20:34.219Z,59.40
2023-05-06T19:23:03.189Z,59.20
2023-05-06T19:25:33.684Z,59.40
2023-05-06T19:28:03.437Z,59.20
2023-05-06T19:30:33.273Z,59.20
2023-05-06T19:33:03.107Z,60.00
2023-05-06T19:35:32.770Z,60.30
2023-05-06T19:38:02.368Z,59.60
2023-05-06T19:40:31.951Z,59.70
2023-05-06T19:43:01.755Z,60.10
2023-05-06T19:45:31.265Z,60.00
2023-05-06T19:48:00.856Z,60.00
2023-05-06T19:50:31.568Z,60.00
2023-05-06T19:53:01.256Z,59.90
2023-05-06T19:55:30.894Z,60.00
2023-05-06T19:58:00.428Z,60.20
2023-05-06T20:00:29.965Z,60.00
2023-05-06T20:02:59.497Z,59.60
2023-05-06T20:05:29.291Z,60.00
2023-05-06T20:07:58.861Z,60.60
2023-05-06T20:10:28.513Z,60.80
2023-05-06T20:12:58.287Z,60.70
2023-05-06T20:15:28.136Z,60.40
2023-05-06T20:17:57.709Z,60.10
2023-05-06T20:20:27.348Z,59.90
2023-05-06T20:22:56.846Z,59.60
2023-05-06T20:25:28.096Z,59.70
2023-05-06T20:27:57.618Z,59.80
2023-05-06T20:30:27.216Z,60.10
2023-05-06T20:32:59.556Z,59.50
2023-05-06T20:35:28.429Z,59.40
2023-05-06T20:37:57.972Z,59.30
2023-05-06T20:40:27.730Z,59.40
2023-05-06T20:42:57.463Z,59.80
2023-05-06T20:45:27.088Z,59.70
2023-05-06T20:47:57.679Z,59.90
2023-05-06T20:50:28.274Z,60.00
2023-05-06T20:52:59.522Z,59.90
2023-05-06T20:55:28.543Z,59.90
2023-05-06T20:57:58.215Z,59.70
2023-05-06T21:00:27.734Z,59.90
2023-05-06T21:03:00.185Z,59.60
2023-05-06T21:05:29.081Z,59.50
2023-05-06T21:07:58.695Z,59.60
2023-05-06T21:10:28.312Z,59.20
2023-05-06T21:12:57.946Z,59.20
2023-05-06T21:15:28.531Z,59.40
2023-05-06T21:17:58.276Z,59.30
2023-05-06T21:20:29.165Z,59.50
2023-05-06T21:22:59.819Z,59.30
2023-05-06T21:25:29.423Z,59.20
2023-05-06T21:28:00.686Z,59.40
2023-05-06T21:30:29.575Z,59.40
2023-05-06T21:33:00.292Z,59.20
2023-05-06T21:35:33.039Z,59.40
2023-05-06T21:38:03.912Z,59.40
2023-05-06T21:40:37.217Z,59.30
2023-05-06T21:43:09.940Z,59.40
2023-05-06T21:45:38.988Z,59.20
2023-05-06T21:48:08.565Z,59.20
2023-05-06T21:50:39.954Z,59.40
2023-05-06T21:53:10.887Z,59.80
2023-05-06T21:55:39.766Z,59.70
2023-05-06T21:58:11.034Z,59.70
2023-05-06T22:00:39.977Z,59.70
2023-05-06T22:03:11.302Z,59.60
2023-05-06T22:05:40.250Z,59.60
2023-05-06T22:08:09.882Z,59.40
2023-05-06T22:10:39.467Z,59.50
2023-05-06T22:13:11.986Z,59.50
2023-05-06T22:15:41.871Z,59.50
2023-05-06T22:18:11.572Z,59.50
2023-05-06T22:20:41.072Z,58.90
2023-05-06T22:23:10.693Z,58.30
2023-05-06T22:25:40.503Z,58.40
2023-05-06T22:28:10.200Z,59.10
2023-05-06T22:30:39.812Z,58.80
2023-05-06T22:33:09.455Z,59.00
2023-05-06T22:35:39.134Z,58.90
2023-05-06T22:38:08.737Z,58.60
2023-05-06T22:40:38.344Z,58.50
2023-05-06T22:43:07.969Z,58.30
2023-05-06T22:45:37.682Z,58.30
2023-05-06T22:48:07.323Z,58.20
2023-05-06T22:50:36.983Z,58.80
2023-05-06T22:53:14.575Z,59.00
2023-05-06T22:55:38.661Z,58.70
2023-05-06T22:58:08.503Z,59.40
2023-05-06T23:00:38.084Z,58.80
2023-05-06T23:03:07.687Z,58.90
2023-05-06T23:05:37.291Z,59.20
2023-05-06T23:08:08.543Z,59.50
2023-05-06T23:10:37.414Z,59.00
2023-05-06T23:13:07.120Z,59.20
2023-05-06T23:15:36.710Z,59.30
2023-05-06T23:18:08.054Z,59.30
2023-05-06T23:20:36.997Z,59.40
2023-05-06T23:23:06.594Z,59.50
2023-05-06T23:25:36.200Z,59.50
2023-05-06T23:28:05.803Z,59.40
2023-05-06T23:30:35.655Z,60.00
2023-05-06T23:33:06.337Z,60.10
2023-05-06T23:35:35.959Z,60.00
2023-05-06T23:38:05.572Z,59.60
2023-05-06T23:40:35.138Z,59.30
2023-05-06T23:43:04.730Z,58.90
2023-05-06T23:45:34.079Z,58.70
2023-05-06T23:48:03.816Z,58.50
2023-05-06T23:50:33.097Z,58.30
2023-05-06T23:53:01.983Z,58.30
2023-05-06T23:55:30.873Z,58.20
2023-05-06T23:57:59.788Z,58.40
